FR-0215 weather

Centre Hospitalier Heliport
Annecy, Auvergne-Rhône-Alpes, France

Public forecast

Using degrees Celsius for public forecast. Weather courtesy of forecast.io.

Closest aviation weather report (METAR) to Centre Hospitalier Heliport

Closest report is Annecy-Haute-Savoie-Mont Blanc Airport, 2.4 nm (4.4 km) NNW. Retrieved 2020/06/02 13:30 UTC (36 minutes ago):

LFLP 021330Z AUTO 34009KT 290V030 9999 ///TCU 26/09 Q1014 TEMPO 4000 SHRA

Closest aviation forecast (TAF) to Centre Hospitalier Heliport

Closest forecast is Annecy-Haute-Savoie-Mont Blanc Airport, 2.4 nm (4.4 km) NNW. Retrieved 2020/06/02 09:00 UTC (5 hours ago):

TAF LFLP 020800Z 0209/0309 VRB02KT CAVOK PROB40 TEMPO 0212/0218 33010KT 4000 SHRA BKN060TCU